< < Back
Terminal Aerodrome Forecast


Current Version              Previous Versions:   1  2  3  4  5  6  7  8  9  

Terminal Aerodrome Forecast

026
FTUS42 KTAE 220500
TAFVLD
TAF
KVLD 220530Z 2206/2306 06003KT P6SM SKC
     FM221500 09010G15KT P6SM SCT040 BKN100 BKN250
     FM222100 09010KT P6SM VCSH BKN025 BKN100
     FM230000 09010KT 3SM RA BR OVC007=



Latest METAR

583
SAUS70 KWBC 230200 RRN
MTRVLD
METAR KVLD 230153Z 09005KT 5SM RA BR BKN008 OVC017 16/15 A3017 RMK AO2
SLP223 P0007 T01610150 $


USA.gov is the U.S. government's official web portal to all federal, state and local government web resources and services.